Umm Qasr Airport

ORUQ · Basra, 伊拉克

使用的METAR站距离机场49 km。
罗盘
风向 的 风向 150° Umm Qasr Airport 14/32
风: 4 kt, 2 beaufort

4 kt

1 kt
改变
0 ft 1.000 2.000 3.000 4.000 5.000
CAVOK
METAR OIAA 172200Z 15004KT CAVOK 23/16 Q1008

METAR Umm Qasr Airport - ORUQ

Umm Qasr Airport是,伊拉克中的小机场。 该机场位于纬度30,01970和经度47,92333。 该机场有一条跑道: 14/32. 本场的ICAO机场代码为ORUQ。 机场在Tehran FIR中。

该航空气象观测是针对Abadan Airport在2024年4月18日 01:30, 当地时间进行的。

机场观察

风向为150°,速度为4 kt。

天气为CAVOK。这意味着在5.000 ft或MSA(最低安全高度)以下(以较高者为准)以下没有云。这也意味着没有观测到积雨云或高耸的积云,可见度为10 km 或者更多或更高。此外,不会有雾,降雨或其他重要天气。

温度和风寒是23 °C。 露点为16 °C,相对湿度为65%。 海平面上的气压为1008 hPa (QNH)。

白天

今天,太阳从05:18升起,在18:16降落。 这适用于Umm Qasr Airport,世界夏令时可能有所不同。 当地时间与世界标准时间之间的时差为+3 小时。 夏令时目前正在进行中。

公司介绍

我们没有关于这个机场的公司信息。

体会

到Vliegles.nl去找飞行课程,跳伞和其他飞行体验。 浏览页面,了解Umm Qasr Airport附近所有可用的活动。 你也可以使用搜索功能来寻找你所在地附近的特定飞行课程、跳伞或其他飞行体验。

跑道

Id 标题 侧风 逆风 侧风 %
14/32 142°-322° 4 kt 14 %

逆风成分最大的方向会被突出显示,并用于横风计算。 这并不一定意味着这个方向在使用。

温度 & 天气

温度 23 °C
露点 16 °C
相对湿度 65%
Kp-index 2 (0-9)

白天

日出
05:17 (3:20)
中午
11:46
日落
18:16

小工具

你想在你的网站上有一个关于Umm Qasr Airport的当前航空天气(METAR)的小部件吗?

显示HTML代码
报告变更